createdAt,value
2023-04-17T00:01:40.715Z,12.67
2023-04-17T00:04:43.863Z,13.27
2023-04-17T00:07:49.096Z,14.33
2023-04-17T00:11:00.627Z,13.97
2023-04-17T00:14:07.677Z,13.87
2023-04-17T00:17:10.645Z,15.07
2023-04-17T00:20:13.839Z,13.93
2023-04-17T00:23:18.175Z,14.80
2023-04-17T00:26:21.155Z,14.40
2023-04-17T00:29:24.216Z,13.30
2023-04-17T00:32:27.307Z,14.93
2023-04-17T00:35:30.349Z,14.00
2023-04-17T00:38:34.993Z,14.43
2023-04-17T00:41:38.026Z,14.27
2023-04-17T00:44:41.084Z,14.27
2023-04-17T00:47:44.267Z,13.70
2023-04-17T00:50:47.626Z,12.87
2023-04-17T00:53:52.547Z,14.33
2023-04-17T00:56:57.736Z,13.50
2023-04-17T01:00:00.920Z,14.07
2023-04-17T01:03:04.042Z,13.20
2023-04-17T01:06:07.501Z,13.73
2023-04-17T01:09:12.964Z,13.30
2023-04-17T01:12:20.579Z,14.30
2023-04-17T01:15:23.647Z,14.60
2023-04-17T01:18:26.679Z,14.27
2023-04-17T01:21:29.635Z,14.10
2023-04-17T01:24:34.197Z,14.80
2023-04-17T01:27:37.196Z,14.00
2023-04-17T01:30:40.283Z,15.07
2023-04-17T01:33:43.304Z,14.00
2023-04-17T01:36:46.292Z,14.33
2023-04-17T01:39:50.557Z,13.10
2023-04-17T01:42:53.524Z,14.07
2023-04-17T01:45:56.525Z,14.00
2023-04-17T01:48:59.484Z,14.20
2023-04-17T01:52:02.432Z,13.80
2023-04-17T01:55:07.677Z,14.07
2023-04-17T01:58:10.977Z,14.43
2023-04-17T02:01:13.976Z,15.07
2023-04-17T02:04:17.702Z,14.00
2023-04-17T02:07:20.713Z,14.20
2023-04-17T02:10:25.010Z,15.50
2023-04-17T02:13:28.028Z,14.00
2023-04-17T02:16:31.771Z,15.33
2023-04-17T02:19:35.332Z,14.67
2023-04-17T02:22:38.347Z,14.70
2023-04-17T02:25:42.698Z,14.67
2023-04-17T02:28:46.080Z,14.93
2023-04-17T02:31:49.231Z,14.80
2023-04-17T02:34:52.409Z,14.87
2023-04-17T02:37:55.560Z,15.27
2023-04-17T02:41:00.264Z,15.07
2023-04-17T02:44:04.272Z,14.87
2023-04-17T02:47:07.431Z,16.60
2023-04-17T02:50:11.531Z,14.47
2023-04-17T02:53:14.474Z,15.37
2023-04-17T02:56:18.823Z,17.00
2023-04-17T02:59:21.785Z,16.50
2023-04-17T03:02:25.023Z,15.10
2023-04-17T03:05:30.390Z,15.80
2023-04-17T03:08:35.675Z,15.37
2023-04-17T03:11:39.974Z,16.20
2023-04-17T03:14:43.674Z,14.80
2023-04-17T03:17:46.721Z,15.97
2023-04-17T03:20:49.703Z,15.73
2023-04-17T03:23:52.641Z,16.73
2023-04-17T03:26:57.536Z,16.03
2023-04-17T03:30:00.506Z,17.17
2023-04-17T03:33:03.572Z,17.00
2023-04-17T03:36:07.097Z,18.13
2023-04-17T03:39:10.455Z,17.67
2023-04-17T03:42:14.953Z,17.70
2023-04-17T03:45:17.924Z,19.10
2023-04-17T03:48:20.946Z,17.40
2023-04-17T03:51:24.086Z,17.30
2023-04-17T03:54:27.399Z,17.70
2023-04-17T03:57:31.677Z,18.33
2023-04-17T04:00:34.677Z,17.63
2023-04-17T04:03:38.092Z,19.70
2023-04-17T04:06:42.683Z,17.93
2023-04-17T04:09:46.126Z,19.30
2023-04-17T04:12:50.422Z,19.33
2023-04-17T04:15:53.406Z,18.67
2023-04-17T04:18:56.405Z,19.17
2023-04-17T04:21:59.389Z,19.97
2023-04-17T04:25:02.546Z,21.03
2023-04-17T04:28:06.912Z,20.27
2023-04-17T04:31:10.045Z,20.27
2023-04-17T04:34:13.359Z,20.07
2023-04-17T04:37:16.317Z,21.77
2023-04-17T04:40:19.351Z,20.17
2023-04-17T04:43:23.632Z,20.57
2023-04-17T04:46:26.651Z,20.97
2023-04-17T04:49:29.584Z,20.80
2023-04-17T04:52:32.548Z,21.63
2023-04-17T04:55:35.524Z,21.27
2023-04-17T04:58:39.793Z,21.97
2023-04-17T05:01:44.747Z,21.83
2023-04-17T05:04:47.935Z,21.47
2023-04-17T05:07:50.963Z,21.53
2023-04-17T05:10:53.926Z,20.77
2023-04-17T05:13:58.236Z,22.17
2023-04-17T05:17:01.363Z,23.00
2023-04-17T05:20:06.880Z,22.90
2023-04-17T05:23:10.071Z,21.37
2023-04-17T05:26:13.111Z,21.30
2023-04-17T05:29:17.392Z,21.97
2023-04-17T05:32:20.339Z,21.43
2023-04-17T05:35:23.450Z,23.47
2023-04-17T05:38:26.393Z,21.97
2023-04-17T05:41:31.076Z,22.17
2023-04-17T05:44:35.381Z,21.83
2023-04-17T05:47:38.511Z,22.13
2023-04-17T05:50:41.817Z,22.23
2023-04-17T05:53:45.453Z,23.17
2023-04-17T05:56:49.682Z,22.80
2023-04-17T05:59:53.983Z,22.50
2023-04-17T06:02:58.443Z,22.13
2023-04-17T06:06:02.200Z,21.13
2023-04-17T06:09:07.112Z,22.33
2023-04-17T06:12:15.777Z,21.30
2023-04-17T06:15:20.172Z,22.00
2023-04-17T06:18:23.221Z,20.73
2023-04-17T06:21:26.754Z,20.60
2023-04-17T06:24:29.755Z,22.90
2023-04-17T06:27:33.901Z,20.07
2023-04-17T06:30:40.814Z,21.60
2023-04-17T06:33:43.880Z,21.33
2023-04-17T06:36:46.968Z,20.13
2023-04-17T06:39:49.965Z,19.70
2023-04-17T06:42:52.918Z,18.63
2023-04-17T06:45:57.372Z,20.13
2023-04-17T06:49:01.668Z,20.13
2023-04-17T06:52:05.179Z,18.70
2023-04-17T06:55:09.132Z,19.33
2023-04-17T06:58:12.306Z,18.80
2023-04-17T07:01:16.809Z,17.83
2023-04-17T07:04:20.919Z,19.20
2023-04-17T07:07:24.143Z,18.43
2023-04-17T07:10:27.155Z,17.33
2023-04-17T07:13:31.537Z,18.17
2023-04-17T07:16:36.065Z,17.30
2023-04-17T07:19:39.237Z,16.90
2023-04-17T07:22:43.103Z,16.80
2023-04-17T07:25:46.194Z,17.30
2023-04-17T07:28:49.154Z,17.63
2023-04-17T07:31:53.515Z,16.60
2023-04-17T07:34:56.546Z,16.03
2023-04-17T07:38:01.499Z,17.17
2023-04-17T07:41:04.887Z,17.67
2023-04-17T07:44:07.847Z,16.67
2023-04-17T07:47:12.201Z,15.57
2023-04-17T07:50:15.425Z,14.40
2023-04-17T07:53:18.998Z,15.97
2023-04-17T07:56:21.934Z,15.50
2023-04-17T07:59:25.002Z,13.80
2023-04-17T08:02:29.808Z,14.50
2023-04-17T08:05:33.152Z,12.73
2023-04-17T08:08:36.264Z,12.07
2023-04-17T08:11:53.408Z,12.20
2023-04-17T08:14:59.693Z,11.03
2023-04-17T08:18:04.786Z,11.73
2023-04-17T08:21:08.847Z,11.20
2023-04-17T08:24:11.826Z,11.27
2023-04-17T08:27:15.133Z,12.13
2023-04-17T08:30:19.252Z,12.27
2023-04-17T08:33:23.878Z,11.33
2023-04-17T08:36:27.518Z,10.50
2023-04-17T08:39:30.499Z,10.30
2023-04-17T08:42:37.131Z,10.63
2023-04-17T08:45:44.828Z,10.07
2023-04-17T08:48:52.093Z,10.40
2023-04-17T08:51:55.202Z,10.23
2023-04-17T08:54:58.186Z,9.70
2023-04-17T08:58:03.804Z,8.13
2023-04-17T09:01:11.254Z,9.90
2023-04-17T09:04:36.897Z,9.07
2023-04-17T09:07:44.313Z,9.20
2023-04-17T09:10:49.037Z,8.40
2023-04-17T09:13:52.397Z,8.93
2023-04-17T09:16:55.658Z,9.13
2023-04-17T09:20:09.693Z,9.10
2023-04-17T09:23:12.788Z,9.00
2023-04-17T09:26:16.919Z,9.37
2023-04-17T09:29:20.097Z,9.30
2023-04-17T09:32:23.099Z,9.20
2023-04-17T09:35:27.504Z,8.03
2023-04-17T09:38:40.085Z,8.97
2023-04-17T09:41:43.130Z,7.70
2023-04-17T09:44:46.127Z,7.20
2023-04-17T09:47:49.800Z,7.23
2023-04-17T09:50:54.696Z,6.70
2023-04-17T09:54:00.524Z,6.53
2023-04-17T09:57:04.282Z,6.93
2023-04-17T10:00:14.056Z,6.73
2023-04-17T10:03:18.056Z,7.63
2023-04-17T10:06:22.524Z,6.67
2023-04-17T10:09:25.533Z,5.97
2023-04-17T10:12:28.520Z,6.10
2023-04-17T10:15:32.301Z,6.13
2023-04-17T10:18:35.472Z,6.40
2023-04-17T10:21:40.700Z,7.40
2023-04-17T10:24:43.722Z,7.60
2023-04-17T10:27:48.676Z,6.87
2023-04-17T10:30:53.816Z,7.20
2023-04-17T10:33:56.849Z,8.00
2023-04-17T10:37:02.944Z,7.37
2023-04-17T10:40:12.527Z,7.43
2023-04-17T10:43:19.814Z,8.47
2023-04-17T10:46:27.171Z,6.63
2023-04-17T10:49:47.074Z,6.80
2023-04-17T10:52:51.360Z,7.30
2023-04-17T10:55:58.274Z,7.90
2023-04-17T10:59:02.914Z,8.80
2023-04-17T11:02:07.649Z,8.30
2023-04-17T11:05:11.940Z,7.80
2023-04-17T11:08:16.534Z,7.30
2023-04-17T11:11:30.473Z,7.30
2023-04-17T11:14:43.694Z,7.10
2023-04-17T11:17:49.744Z,6.20
2023-04-17T11:20:53.637Z,6.27
2023-04-17T11:23:57.956Z,5.77
2023-04-17T11:27:03.307Z,5.70
2023-04-17T11:30:07.636Z,7.13
2023-04-17T11:33:10.895Z,6.40
2023-04-17T11:36:14.151Z,6.33
2023-04-17T11:39:18.485Z,5.60
2023-04-17T11:42:27.618Z,5.37
2023-04-17T11:45:32.475Z,5.00
2023-04-17T11:48:36.088Z,5.00
2023-04-17T11:51:39.045Z,4.70
2023-04-17T11:54:43.386Z,5.50
2023-04-17T11:57:47.049Z,5.10
2023-04-17T12:01:05.159Z,4.40
2023-04-17T12:04:21.715Z,5.00
2023-04-17T12:07:25.593Z,5.40
2023-04-17T12:10:39.320Z,5.27
2023-04-17T12:13:42.272Z,5.83
2023-04-17T12:16:48.056Z,5.50
2023-04-17T12:19:51.582Z,5.97
2023-04-17T12:22:54.555Z,5.70
2023-04-17T12:25:58.890Z,6.10
2023-04-17T12:29:01.968Z,5.43
2023-04-17T12:32:05.406Z,5.87
2023-04-17T12:35:09.088Z,5.57
2023-04-17T12:38:12.058Z,5.53
2023-04-17T12:41:16.389Z,5.50
2023-04-17T12:44:19.368Z,6.37
2023-04-17T12:47:22.377Z,5.90
2023-04-17T12:50:26.113Z,6.07
2023-04-17T12:53:29.965Z,6.20
2023-04-17T12:56:35.405Z,5.93
2023-04-17T12:59:39.586Z,6.20
2023-04-17T13:02:42.657Z,6.53
2023-04-17T13:05:45.880Z,5.47
2023-04-17T13:08:48.877Z,5.30
2023-04-17T13:11:53.174Z,5.60
2023-04-17T13:14:57.594Z,5.67
2023-04-17T13:18:00.863Z,5.30
2023-04-17T13:21:03.935Z,5.50
2023-04-17T13:24:07.593Z,5.57
2023-04-17T13:27:11.940Z,5.50
2023-04-17T13:30:15.807Z,5.03
2023-04-17T13:33:18.766Z,5.57
2023-04-17T13:36:21.760Z,4.80
2023-04-17T13:39:24.710Z,5.40
2023-04-17T13:42:29.071Z,5.03
2023-04-17T13:45:32.067Z,4.30
2023-04-17T13:48:35.026Z,4.23
2023-04-17T13:51:38.209Z,4.40
2023-04-17T13:54:41.868Z,4.50
2023-04-17T13:57:46.190Z,3.87
2023-04-17T14:00:49.202Z,3.77
2023-04-17T14:03:52.358Z,4.03
2023-04-17T14:06:55.785Z,4.33
2023-04-17T14:09:58.717Z,4.73
2023-04-17T14:13:03.167Z,4.73
2023-04-17T14:16:06.948Z,3.60
2023-04-17T14:19:13.861Z,4.53
2023-04-17T14:22:17.529Z,4.43
2023-04-17T14:25:20.507Z,4.03
2023-04-17T14:28:25.232Z,4.67
2023-04-17T14:31:28.346Z,4.27
2023-04-17T14:34:31.347Z,4.03
2023-04-17T14:37:34.613Z,3.93
2023-04-17T14:40:37.826Z,4.87
2023-04-17T14:43:42.118Z,4.37
2023-04-17T14:46:45.175Z,4.40
2023-04-17T14:49:48.342Z,4.87
2023-04-17T14:52:51.776Z,4.80
2023-04-17T14:55:54.796Z,4.50
2023-04-17T14:58:59.133Z,4.80
2023-04-17T15:02:02.446Z,4.90
2023-04-17T15:05:06.189Z,5.60
2023-04-17T15:08:09.150Z,5.20
2023-04-17T15:11:12.098Z,5.10
2023-04-17T15:14:16.496Z,4.57
2023-04-17T15:17:19.782Z,4.57
2023-04-17T15:20:25.023Z,4.70
2023-04-17T15:23:29.617Z,5.23
2023-04-17T15:26:33.104Z,5.43
2023-04-17T15:29:37.412Z,5.00
2023-04-17T15:32:41.579Z,5.80
2023-04-17T15:35:44.708Z,5.27
2023-04-17T15:38:47.668Z,5.50
2023-04-17T15:41:50.907Z,5.57
2023-04-17T15:44:55.553Z,5.80
2023-04-17T15:47:58.592Z,5.57
2023-04-17T15:51:03.768Z,5.60
2023-04-17T15:54:06.962Z,5.43
2023-04-17T15:57:09.950Z,5.87
2023-04-17T16:00:15.668Z,5.50
2023-04-17T16:03:19.030Z,5.83
2023-04-17T16:06:22.129Z,5.30
2023-04-17T16:09:25.067Z,5.17
2023-04-17T16:12:28.809Z,5.63
2023-04-17T16:15:33.230Z,5.13
2023-04-17T16:18:36.435Z,5.13
2023-04-17T16:21:39.433Z,5.10
2023-04-17T16:24:42.357Z,5.13
2023-04-17T16:27:45.287Z,5.73
2023-04-17T16:30:49.580Z,5.23
2023-04-17T16:33:52.549Z,5.37
2023-04-17T16:36:55.561Z,4.83
2023-04-17T16:40:04.251Z,5.07
2023-04-17T16:43:07.453Z,4.70
2023-04-17T16:46:22.145Z,5.00
2023-04-17T16:49:27.893Z,5.53
2023-04-17T16:52:30.892Z,5.13
2023-04-17T16:55:33.921Z,5.40
2023-04-17T16:58:36.853Z,6.03
2023-04-17T17:01:41.176Z,6.03
2023-04-17T17:04:45.010Z,5.30
2023-04-17T17:07:48.275Z,5.57
2023-04-17T17:10:51.907Z,4.97
2023-04-17T17:13:54.885Z,5.70
2023-04-17T17:16:59.360Z,6.20
2023-04-17T17:20:02.514Z,5.87
2023-04-17T17:23:05.546Z,6.50
2023-04-17T17:26:09.112Z,6.20
2023-04-17T17:29:12.352Z,6.53
2023-04-17T17:32:17.412Z,6.07
2023-04-17T17:35:20.687Z,6.10
2023-04-17T17:38:23.675Z,5.80
2023-04-17T17:41:27.470Z,6.00
2023-04-17T17:44:31.386Z,6.40
2023-04-17T17:47:35.751Z,5.93
2023-04-17T17:50:38.736Z,9.80
2023-04-17T17:53:42.047Z,5.97
2023-04-17T17:56:45.061Z,6.63
2023-04-17T17:59:48.020Z,7.37
2023-04-17T18:02:52.606Z,7.73
2023-04-17T18:05:55.740Z,6.23
2023-04-17T18:08:58.824Z,6.63
2023-04-17T18:12:03.660Z,6.10
2023-04-17T18:15:07.708Z,6.87
2023-04-17T18:18:11.987Z,6.60
2023-04-17T18:21:14.949Z,6.13
2023-04-17T18:24:17.920Z,7.70
2023-04-17T18:27:21.000Z,5.83
2023-04-17T18:30:24.084Z,5.80
2023-04-17T18:33:28.736Z,5.60
2023-04-17T18:36:31.835Z,5.73
2023-04-17T18:39:34.987Z,5.33
2023-04-17T18:42:37.938Z,5.30
2023-04-17T18:45:40.909Z,5.63
2023-04-17T18:48:45.399Z,6.00
2023-04-17T18:51:48.948Z,5.30
2023-04-17T18:54:51.916Z,6.03
2023-04-17T18:57:54.894Z,5.10
2023-04-17T19:00:57.896Z,5.23
2023-04-17T19:04:02.699Z,5.70
2023-04-17T19:07:05.927Z,5.27
2023-04-17T19:10:09.913Z,6.03
2023-04-17T19:13:12.840Z,5.77
2023-04-17T19:16:15.923Z,5.47
2023-04-17T19:19:20.253Z,6.07
2023-04-17T19:22:23.251Z,5.97
2023-04-17T19:25:26.731Z,6.20
2023-04-17T19:28:29.797Z,6.30
2023-04-17T19:31:33.307Z,6.77
2023-04-17T19:34:37.672Z,5.93
2023-04-17T19:37:40.680Z,6.33
2023-04-17T19:40:43.643Z,6.30
2023-04-17T19:43:47.050Z,6.20
2023-04-17T19:46:50.428Z,6.03
2023-04-17T19:49:54.730Z,6.40
2023-04-17T19:52:58.765Z,6.90
2023-04-17T19:56:01.834Z,6.20
2023-04-17T19:59:05.751Z,7.07
2023-04-17T20:02:08.877Z,7.00
2023-04-17T20:05:13.241Z,7.23
2023-04-17T20:08:16.400Z,7.40
2023-04-17T20:11:19.350Z,7.23
2023-04-17T20:14:22.311Z,7.03
2023-04-17T20:17:25.318Z,7.13
2023-04-17T20:20:29.764Z,6.97
2023-04-17T20:23:32.744Z,8.10
2023-04-17T20:26:37.442Z,7.53
2023-04-17T20:29:40.631Z,8.17
2023-04-17T20:32:45.922Z,8.10
2023-04-17T20:35:50.325Z,7.87
2023-04-17T20:38:53.270Z,7.20
2023-04-17T20:41:56.376Z,8.60
2023-04-17T20:44:59.630Z,7.97
2023-04-17T20:48:02.751Z,7.30
2023-04-17T20:51:07.154Z,9.13
2023-04-17T20:54:10.064Z,8.00
2023-04-17T20:57:13.029Z,9.40
2023-04-17T21:00:16.304Z,9.10
2023-04-17T21:03:19.370Z,8.17
2023-04-17T21:06:24.339Z,8.20
2023-04-17T21:09:27.837Z,8.53
2023-04-17T21:12:32.714Z,8.83
2023-04-17T21:15:35.818Z,8.23
2023-04-17T21:18:38.865Z,8.00
2023-04-17T21:21:43.375Z,8.43
2023-04-17T21:24:46.327Z,8.90
2023-04-17T21:27:49.353Z,9.20
2023-04-17T21:30:52.386Z,8.47
2023-04-17T21:33:55.295Z,9.00
2023-04-17T21:37:02.087Z,7.97
2023-04-17T21:40:05.476Z,8.73
2023-04-17T21:43:08.538Z,8.50
2023-04-17T21:46:11.889Z,8.90
2023-04-17T21:49:15.005Z,8.37
2023-04-17T21:52:19.315Z,8.30
2023-04-17T21:55:22.329Z,8.77
2023-04-17T21:58:25.360Z,9.00
2023-04-17T22:01:28.385Z,9.37
2023-04-17T22:04:31.432Z,8.43
2023-04-17T22:07:47.343Z,8.93
2023-04-17T22:10:57.068Z,8.57
2023-04-17T22:14:00.063Z,9.63
2023-04-17T22:17:03.204Z,8.93
2023-04-17T22:20:07.509Z,9.37
2023-04-17T22:23:11.852Z,8.73
2023-04-17T22:26:14.850Z,8.90
2023-04-17T22:29:17.790Z,9.50
2023-04-17T22:32:21.167Z,8.97
2023-04-17T22:35:24.431Z,8.73
2023-04-17T22:38:28.680Z,9.33
2023-04-17T22:41:31.632Z,8.90
2023-04-17T22:44:34.604Z,12.53
2023-04-17T22:47:37.669Z,9.60
2023-04-17T22:50:40.682Z,9.33
2023-04-17T22:53:45.002Z,9.30
2023-04-17T22:56:47.950Z,9.40
2023-04-17T22:59:50.963Z,9.10
2023-04-17T23:02:53.995Z,10.20
2023-04-17T23:05:57.257Z,9.33
2023-04-17T23:09:01.535Z,9.93
2023-04-17T23:12:06.008Z,10.23
2023-04-17T23:15:10.321Z,10.43
2023-04-17T23:18:13.268Z,11.13
2023-04-17T23:21:16.514Z,10.53
2023-04-17T23:24:20.903Z,10.93
2023-04-17T23:27:23.975Z,11.10
2023-04-17T23:30:27.038Z,11.50
2023-04-17T23:33:29.953Z,12.30
2023-04-17T23:36:32.914Z,12.57
2023-04-17T23:39:37.207Z,12.77
2023-04-17T23:42:41.209Z,12.30
2023-04-17T23:45:44.186Z,13.93
2023-04-17T23:48:47.153Z,14.27
2023-04-17T23:51:50.072Z,12.70
2023-04-17T23:54:54.612Z,14.23
2023-04-17T23:57:58.386Z,14.73
